createdAt,value
2022-10-20T04:16:19.552Z,100363.31
2022-10-20T04:18:46.272Z,100346.66
2022-10-20T04:21:12.744Z,100339.72
2022-10-20T04:23:39.328Z,100347.63
2022-10-20T04:26:11.140Z,100350.13
2022-10-20T04:28:37.922Z,100354.59
2022-10-20T04:31:04.994Z,100351.19
2022-10-20T04:33:31.945Z,100346.81
2022-10-20T04:36:06.962Z,100345.94
2022-10-20T04:38:34.593Z,100330.81
2022-10-20T04:41:04.430Z,100334.38
2022-10-20T04:43:32.734Z,100346.56
2022-10-20T04:46:07.124Z,100330.06
2022-10-20T04:48:36.010Z,100324.63
2022-10-20T04:51:11.673Z,100336.09
2022-10-20T04:53:38.862Z,100320.94
2022-10-20T04:56:13.162Z,100311.78
2022-10-20T04:58:39.690Z,100307.53
2022-10-20T05:01:09.137Z,100304.78
2022-10-20T05:03:36.844Z,100291.91
2022-10-20T05:06:32.905Z,100278.81
2022-10-20T05:09:02.404Z,100282.00
2022-10-20T05:11:30.240Z,100272.19
2022-10-20T05:13:57.457Z,100275.53
2022-10-20T05:16:24.144Z,100272.09
2022-10-20T05:18:52.313Z,100269.34
2022-10-20T05:21:22.182Z,100256.91
2022-10-20T05:23:49.410Z,100257.72
2022-10-20T05:26:18.738Z,100266.59
2022-10-20T05:28:47.292Z,100264.91
2022-10-20T05:31:14.848Z,100251.13
2022-10-20T05:33:48.591Z,100256.13
2022-10-20T05:36:20.911Z,100262.13
2022-10-20T05:38:48.908Z,100257.97
2022-10-20T05:41:18.354Z,100257.63
2022-10-20T05:43:53.316Z,100254.13
2022-10-20T05:46:20.272Z,100250.50
2022-10-20T05:48:46.923Z,100253.16
2022-10-20T05:51:16.684Z,100250.75
2022-10-20T05:53:44.447Z,100252.31
2022-10-20T05:56:14.235Z,100248.75
2022-10-20T05:58:41.255Z,100247.78
2022-10-20T06:01:17.396Z,100247.28
2022-10-20T06:03:48.891Z,100257.63
2022-10-20T06:06:15.822Z,100251.63
2022-10-20T06:08:42.268Z,100248.84
2022-10-20T06:11:10.819Z,100262.78
2022-10-20T06:13:37.386Z,100254.38
2022-10-20T06:16:08.217Z,100251.97
2022-10-20T06:18:35.103Z,100247.19
2022-10-20T06:21:07.233Z,100248.19
2022-10-20T06:23:34.497Z,100264.31
2022-10-20T06:26:10.055Z,100270.28
2022-10-20T06:28:38.025Z,100273.66
2022-10-20T06:31:19.011Z,100285.75
2022-10-20T06:33:46.087Z,100276.94
2022-10-20T06:36:12.994Z,100269.31
2022-10-20T06:38:40.144Z,100277.97
2022-10-20T06:41:09.598Z,100280.31
2022-10-20T06:43:36.420Z,100278.47
2022-10-20T06:46:05.919Z,100290.47
2022-10-20T06:48:33.763Z,100288.53
2022-10-20T06:51:02.574Z,100285.84
2022-10-20T06:53:29.548Z,100297.16
2022-10-20T06:56:06.981Z,100310.09
2022-10-20T06:58:35.458Z,100325.91
2022-10-20T07:01:21.195Z,100328.38
2022-10-20T07:03:48.156Z,100316.69
2022-10-20T07:06:22.857Z,100302.59
2022-10-20T07:08:50.961Z,100301.63
2022-10-20T07:11:19.366Z,100314.59
2022-10-20T07:13:46.383Z,100310.91
2022-10-20T07:16:15.841Z,100315.53
2022-10-20T07:21:14.238Z,100310.81
2022-10-20T07:23:41.301Z,100305.53
2022-10-20T07:26:12.373Z,100306.50
2022-10-20T07:28:41.938Z,100313.28
2022-10-20T07:31:18.271Z,100307.28
2022-10-20T07:33:56.523Z,100316.81
2022-10-20T07:36:35.949Z,100303.16
2022-10-20T07:39:06.290Z,100300.34
2022-10-20T07:41:34.518Z,100297.69
2022-10-20T07:44:01.460Z,100287.41
2022-10-20T07:46:28.006Z,100289.38
2022-10-20T07:48:54.414Z,100290.25
2022-10-20T07:51:27.064Z,100282.44
2022-10-20T07:53:59.657Z,100283.13
2022-10-20T07:56:33.478Z,100284.66
2022-10-20T07:59:00.073Z,100272.72
2022-10-20T08:01:27.110Z,100276.91
2022-10-20T08:03:53.643Z,100279.25
2022-10-20T08:06:20.196Z,100279.34
2022-10-20T08:08:46.745Z,100281.44
2022-10-20T08:11:13.385Z,100290.59
2022-10-20T08:13:41.046Z,100293.63
2022-10-20T08:16:13.814Z,100280.34
2022-10-20T08:21:22.797Z,100281.63
2022-10-20T08:23:50.177Z,100285.75
2022-10-20T08:26:25.279Z,100281.97
2022-10-20T08:28:53.906Z,100272.41
2022-10-20T08:31:21.431Z,100277.94
2022-10-20T08:33:52.353Z,100266.81
2022-10-20T08:36:19.759Z,100260.69
2022-10-20T08:38:46.196Z,100246.50
2022-10-20T08:41:18.909Z,100257.03
2022-10-20T08:43:47.002Z,100249.13
2022-10-20T08:46:20.105Z,100260.47
2022-10-20T08:48:47.995Z,100259.53
2022-10-20T08:51:28.069Z,100257.34
2022-10-20T08:53:58.747Z,100247.75
2022-10-20T08:56:28.947Z,100238.34
2022-10-20T08:58:56.050Z,100235.41
2022-10-20T09:01:30.756Z,100239.13
2022-10-20T09:04:28.803Z,100255.94
2022-10-20T09:07:00.223Z,100235.81
2022-10-20T09:09:30.272Z,100217.84
2022-10-20T09:12:05.231Z,100228.47
2022-10-20T09:14:35.320Z,100242.22
2022-10-20T09:17:02.142Z,100242.59
2022-10-20T09:19:29.319Z,100242.59
2022-10-20T09:22:05.608Z,100239.44
2022-10-20T09:24:35.094Z,100235.28
2022-10-20T09:27:20.380Z,100227.03
2022-10-20T09:29:46.946Z,100231.34
2022-10-20T09:32:48.157Z,100213.94
2022-10-20T09:35:19.303Z,100198.50
2022-10-20T09:37:52.669Z,100226.19
2022-10-20T09:40:19.579Z,100246.91
2022-10-20T09:42:59.946Z,100243.94
2022-10-20T09:45:29.322Z,100246.22
2022-10-20T09:48:06.406Z,100249.22
2022-10-20T09:50:38.450Z,100245.25
2022-10-20T09:53:15.275Z,100247.47
2022-10-20T09:55:46.983Z,100239.81
2022-10-20T09:58:33.562Z,100248.25
2022-10-20T10:01:06.849Z,100230.50
2022-10-20T10:03:43.256Z,100223.03
2022-10-20T10:06:41.900Z,100219.31
2022-10-20T10:09:50.703Z,100208.53
2022-10-20T10:12:19.473Z,100221.06
2022-10-20T10:14:58.485Z,100235.19
2022-10-20T10:17:32.754Z,100229.53
2022-10-20T10:20:00.774Z,100236.91
2022-10-20T10:22:27.980Z,100236.97
2022-10-20T10:24:55.697Z,100223.34
2022-10-20T10:27:31.691Z,100228.28
2022-10-20T10:30:16.575Z,100229.16
2022-10-20T10:32:44.493Z,100220.72
2022-10-20T10:35:20.063Z,100219.88
2022-10-20T10:37:47.584Z,100209.47
2022-10-20T10:40:17.452Z,100196.88
2022-10-20T10:43:13.092Z,100192.84
2022-10-20T10:45:45.459Z,100188.34
2022-10-20T10:48:33.858Z,100188.69
2022-10-20T10:51:03.299Z,100186.75
2022-10-20T10:53:57.283Z,100190.44
2022-10-20T10:56:35.046Z,100187.50
2022-10-20T10:59:11.659Z,100182.69
2022-10-20T11:02:11.691Z,100172.53
2022-10-20T11:05:09.240Z,100168.16
2022-10-20T11:08:04.166Z,100163.94
2022-10-20T11:10:45.250Z,100152.91
2022-10-20T11:13:37.646Z,100132.84
2022-10-20T11:16:44.633Z,100165.25
2022-10-20T11:19:29.307Z,100149.94
2022-10-20T11:22:17.355Z,100143.53
2022-10-20T11:25:10.911Z,100130.72
2022-10-20T11:27:38.990Z,100146.66
2022-10-20T11:30:19.311Z,100150.31
2022-10-20T11:33:01.064Z,100145.72
2022-10-20T11:35:35.738Z,100150.56
2022-10-20T11:38:02.067Z,100148.44
2022-10-20T11:40:38.872Z,100147.34
2022-10-20T11:43:14.598Z,100142.00
2022-10-20T11:45:54.330Z,100137.78
2022-10-20T11:48:30.091Z,100141.78
2022-10-20T11:51:10.197Z,100141.72
2022-10-20T11:54:14.602Z,100141.84
2022-10-20T11:57:23.663Z,100142.84
2022-10-20T12:00:02.263Z,100155.56
2022-10-20T12:02:54.270Z,100161.38
2022-10-20T12:05:29.806Z,100164.84
2022-10-20T12:08:29.523Z,100163.41
2022-10-20T12:11:14.376Z,100151.63
2022-10-20T12:13:48.913Z,100156.63
2022-10-20T12:16:55.674Z,100142.69
2022-10-20T12:19:26.072Z,100135.41
2022-10-20T12:22:24.794Z,100136.34
2022-10-20T12:24:54.131Z,100132.94
2022-10-20T12:27:23.423Z,100132.00
2022-10-20T12:30:26.433Z,100135.25
2022-10-20T12:32:57.400Z,100130.28
2022-10-20T12:35:23.743Z,100122.41
2022-10-20T12:38:02.266Z,100124.31
2022-10-20T12:40:40.754Z,100125.03
2022-10-20T12:43:23.862Z,100116.78
2022-10-20T12:45:50.871Z,100114.50
2022-10-20T12:48:23.677Z,100112.22
2022-10-20T12:50:52.105Z,100121.53
2022-10-20T12:53:28.773Z,100128.38
2022-10-20T12:56:05.155Z,100130.38
2022-10-20T12:58:36.737Z,100128.56
2022-10-20T13:01:07.449Z,100125.91
2022-10-20T13:03:43.978Z,100122.97
2022-10-20T13:06:22.591Z,100130.19
2022-10-20T13:09:07.368Z,100121.38
2022-10-20T13:11:40.790Z,100114.84
2022-10-20T13:14:13.340Z,100119.59
2022-10-20T13:17:02.793Z,100113.38
2022-10-20T13:19:44.860Z,100115.50
2022-10-20T13:22:34.020Z,100108.66
2022-10-20T13:25:03.153Z,100105.72
2022-10-20T13:27:29.716Z,100095.84
2022-10-20T13:29:56.578Z,100076.72
2022-10-20T13:33:11.506Z,100081.53
2022-10-20T13:36:17.495Z,100083.47
2022-10-20T13:39:01.997Z,100084.00
2022-10-20T13:41:48.033Z,100074.88
2022-10-20T13:44:32.745Z,100082.97
2022-10-20T13:47:08.875Z,100086.13
2022-10-20T13:50:02.841Z,100086.28
2022-10-20T13:52:35.152Z,100070.41
2022-10-20T13:55:02.506Z,100062.13
2022-10-20T13:57:32.583Z,100071.00
2022-10-20T14:00:01.627Z,100062.16
2022-10-20T14:02:35.052Z,100061.81
2022-10-20T14:05:08.168Z,100063.47
2022-10-20T14:07:53.329Z,100070.91
2022-10-20T14:10:35.096Z,100091.34
2022-10-20T14:13:03.282Z,100089.94
2022-10-20T14:15:33.568Z,100090.84
2022-10-20T14:18:04.000Z,100090.75
2022-10-20T14:20:32.794Z,100089.00
2022-10-20T14:23:02.091Z,100077.25
2022-10-20T14:25:31.382Z,100082.53
2022-10-20T14:28:02.750Z,100072.59
2022-10-20T14:30:41.138Z,100083.75
2022-10-20T14:33:23.619Z,100093.97
2022-10-20T14:36:12.296Z,100081.41
2022-10-20T15:17:46.106Z,100067.81
2022-10-20T15:29:52.720Z,100056.06
2022-10-20T15:32:28.171Z,100051.63
2022-10-20T15:34:54.805Z,100043.19
2022-10-20T15:37:25.948Z,100043.19
2022-10-20T15:39:52.778Z,100045.50
2022-10-20T15:42:22.871Z,100036.81
2022-10-20T15:44:49.562Z,100026.25
2022-10-20T15:47:19.649Z,100021.13
2022-10-20T15:49:46.463Z,100029.47
2022-10-20T15:52:13.506Z,100030.25
2022-10-20T15:54:40.137Z,100028.09
2022-10-20T15:57:06.609Z,100014.28
2022-10-20T15:59:33.124Z,100019.81
2022-10-20T16:02:13.295Z,100015.88
2022-10-20T16:05:05.661Z,100011.31
2022-10-20T16:09:03.731Z,100003.09
2022-10-20T16:12:47.388Z,99991.38
2022-10-20T16:39:10.894Z,99986.28
2022-10-20T16:41:37.542Z,99979.22
2022-10-20T16:44:06.307Z,99986.22
2022-10-20T16:46:39.840Z,99983.50
2022-10-20T16:49:06.777Z,99971.25
2022-10-20T16:51:33.654Z,99960.91
2022-10-20T16:54:03.289Z,99963.50
2022-10-20T16:56:30.357Z,99951.75
2022-10-20T16:58:57.107Z,99956.94
2022-10-20T17:01:23.744Z,99962.59
2022-10-20T17:03:52.483Z,99960.88
2022-10-20T17:06:22.574Z,99972.25
2022-10-20T17:08:50.239Z,99971.50
2022-10-20T17:11:23.808Z,99983.59
2022-10-20T17:13:51.530Z,99987.09
2022-10-20T17:16:22.528Z,99989.06
2022-10-20T17:18:54.707Z,99996.53
2022-10-20T17:21:27.145Z,99996.72
2022-10-20T17:23:53.830Z,99993.09
2022-10-20T17:26:25.229Z,99994.97
2022-10-20T17:28:54.858Z,99994.28
2022-10-20T17:31:31.836Z,100002.56
2022-10-20T17:33:59.291Z,100005.53
2022-10-20T17:36:26.720Z,100015.47
2022-10-20T17:38:59.482Z,100012.56
2022-10-20T17:41:26.589Z,100006.91
2022-10-20T17:43:53.281Z,100011.47
2022-10-20T17:46:20.721Z,99992.59
2022-10-20T17:48:57.522Z,99972.16
2022-10-20T17:51:27.857Z,99975.19
2022-10-20T17:53:58.097Z,99980.16
2022-10-20T17:56:34.390Z,99955.47
2022-10-20T17:59:05.118Z,99921.44
2022-10-20T18:01:33.911Z,99889.19
2022-10-20T18:04:03.803Z,99907.06
2022-10-20T18:06:34.348Z,99965.56
2022-10-20T18:09:11.115Z,99980.91
2022-10-20T18:11:40.486Z,99983.09
2022-10-20T18:14:07.049Z,99990.19
2022-10-20T18:16:35.271Z,99953.81
2022-10-20T18:22:48.409Z,99941.41
2022-10-20T18:25:19.827Z,99953.03
2022-10-20T18:27:49.194Z,99944.59
2022-10-20T18:30:16.760Z,99905.03
2022-10-20T18:32:43.443Z,99935.09
2022-10-20T18:35:10.005Z,99957.13
2022-10-20T18:37:36.844Z,99926.19
2022-10-20T18:40:03.817Z,99934.38
2022-10-20T18:42:30.356Z,99956.72
2022-10-20T18:45:02.580Z,99977.88
2022-10-20T18:47:29.629Z,99983.16
2022-10-20T18:50:00.594Z,99959.88
2022-10-20T18:52:30.223Z,99964.00
2022-10-20T18:54:56.905Z,99953.31
2022-10-20T18:57:23.354Z,99949.69
2022-10-20T18:59:50.071Z,99950.97
2022-10-20T19:02:16.550Z,99946.56
2022-10-20T19:04:43.106Z,99937.13
2022-10-20T19:07:09.703Z,99947.44
2022-10-20T19:09:36.405Z,99944.66
2022-10-20T19:12:08.234Z,99933.31
2022-10-20T19:14:36.844Z,99934.06
2022-10-20T19:17:03.425Z,99928.41
2022-10-20T19:19:29.912Z,99923.44
2022-10-20T19:21:58.339Z,99909.75
2022-10-20T19:24:27.790Z,99918.16
2022-10-20T19:27:25.160Z,99925.84
2022-10-20T19:30:51.258Z,99930.50
2022-10-20T19:33:21.988Z,99921.19
2022-10-20T19:35:50.728Z,99932.34
2022-10-20T19:38:17.992Z,99933.81
2022-10-20T19:40:44.646Z,99924.06
2022-10-20T19:43:11.139Z,99918.63
2022-10-20T19:45:37.589Z,99914.28
2022-10-20T19:48:04.960Z,99902.53
2022-10-20T19:50:33.984Z,99901.09
2022-10-20T19:53:00.490Z,99899.81
2022-10-20T19:55:27.008Z,99890.19
2022-10-20T19:57:53.566Z,99874.13
2022-10-20T20:00:20.170Z,99858.75
2022-10-20T20:02:59.838Z,99861.69
2022-10-20T20:05:26.319Z,99854.72
2022-10-20T20:07:52.908Z,99857.25
2022-10-20T20:10:19.550Z,99851.81
2022-10-20T20:12:45.961Z,99852.44
2022-10-20T20:15:19.684Z,99844.56
2022-10-20T20:17:46.112Z,99840.09
2022-10-20T20:20:12.604Z,99835.31
2022-10-20T20:22:39.051Z,99854.97
2022-10-20T20:25:06.050Z,99857.28
2022-10-20T20:27:32.525Z,99864.38
2022-10-20T20:30:04.298Z,99885.09
2022-10-20T20:32:32.102Z,99886.81
2022-10-20T20:34:59.305Z,99888.28
2022-10-20T20:37:25.938Z,99890.75
2022-10-20T20:39:52.381Z,99884.47
2022-10-20T20:42:18.833Z,99884.28
2022-10-20T20:44:45.479Z,99899.06
2022-10-20T20:47:11.985Z,99899.31
2022-10-20T20:49:38.836Z,99895.69
2022-10-20T20:52:05.307Z,99887.16
2022-10-20T20:54:33.161Z,99879.06
2022-10-20T20:56:59.733Z,99877.00
2022-10-20T20:59:26.293Z,99866.94
2022-10-20T21:01:52.815Z,99863.47
2022-10-20T21:04:21.199Z,99871.09
2022-10-20T21:07:01.827Z,99872.22
2022-10-20T21:09:29.045Z,99874.03
2022-10-20T21:11:55.704Z,99868.22
2022-10-20T21:14:22.555Z,99858.19
2022-10-20T21:16:51.264Z,99857.94
2022-10-20T21:19:33.023Z,99851.94
2022-10-20T21:22:01.224Z,99854.25
2022-10-20T21:24:28.094Z,99858.19
2022-10-20T21:26:54.685Z,99848.78
2022-10-20T21:29:21.290Z,99839.94
2022-10-20T21:31:48.112Z,99841.38
2022-10-20T21:34:14.681Z,99847.53
2022-10-20T21:36:41.253Z,99846.94
2022-10-20T21:39:11.431Z,99834.38
2022-10-20T21:41:38.708Z,99847.25
2022-10-20T21:44:07.266Z,99850.00
2022-10-20T21:46:47.033Z,99849.13
2022-10-20T21:49:16.383Z,99846.38
2022-10-20T21:51:45.995Z,99843.19
2022-10-20T21:54:18.196Z,99839.41
2022-10-20T21:56:46.879Z,99848.03
2022-10-20T21:59:15.919Z,99842.56
